Time;durP1;ratioP1;P1;durP2;ratioP2;P2;SDS_P1;SDS_P2;PMS_P1;PMS_P2;Temp;Humidity;BMP_temperature;BMP_pressure;BME280_temperature;BME280_humidity;BME280_pressure;Samples;Min_cycle;Max_cycle;Signal;HPM_P1;HPM_P2
2022/05/27 00:00:10;;;;;;;;;;;14.70;99.90;;;;;;5086693;28;20196;-72
2022/05/27 00:02:36;;;;;;;;;;;14.70;99.90;;;;;;5070270;28;20281;-71
2022/05/27 00:05:01;;;;;;;;;;;14.80;99.90;;;;;;5087682;28;19912;-72
2022/05/27 00:07:27;;;;;;;;;;;14.80;99.90;;;;;;5082113;28;20369;-71
2022/05/27 00:09:53;;;;;;;;;;;14.80;99.90;;;;;;5088005;28;19920;-71
2022/05/27 00:12:18;;;;;;;;;;;14.80;99.90;;;;;;5084261;28;19909;-71
2022/05/27 00:14:44;;;;;;;;;;;14.90;99.90;;;;;;5084895;28;19916;-72
2022/05/27 00:17:09;;;;;;;;;;;14.90;99.90;;;;;;5067982;28;20285;-71
2022/05/27 00:19:35;;;;;;;;;;;14.80;99.90;;;;;;5085668;28;19923;-71
2022/05/27 00:22:00;;;;;;;;;;;14.90;99.90;;;;;;5085554;28;19912;-72
2022/05/27 00:24:26;;;;;;;;;;;14.80;99.90;;;;;;5086472;28;19912;-73
2022/05/27 00:26:52;;;;;;;;;;;14.80;99.90;;;;;;5084662;28;19974;-71
2022/05/27 00:29:17;;;;;;;;;;;14.90;99.90;;;;;;5068960;28;19954;-72
2022/05/27 00:31:43;;;;;;;;;;;14.90;99.90;;;;;;5065362;28;19928;-70
2022/05/27 00:34:10;;;;;;;;;;;14.90;99.90;;;;;;5085070;28;19912;-71
2022/05/27 00:36:35;;;;;;;;;;;14.90;99.90;;;;;;5085595;28;19974;-72
2022/05/27 00:39:03;;;;;;;;;;;14.90;99.90;;;;;;5086644;28;20357;-72
2022/05/27 00:41:29;;;;;;;;;;;15.00;99.90;;;;;;5081562;28;20432;-71
2022/05/27 00:43:55;;;;;;;;;;;14.90;99.90;;;;;;5088033;28;20331;-72
2022/05/27 00:46:26;;;;;;;;;;;14.90;99.90;;;;;;5082060;28;19998;-72
2022/05/27 00:48:53;;;;;;;;;;;14.80;99.90;;;;;;5087168;28;20290;-71
2022/05/27 00:51:23;;;;;;;;;;;14.80;99.90;;;;;;5087060;28;19945;-71
2022/05/27 00:53:59;;;;;;;;;;;14.80;99.90;;;;;;5084313;28;19918;-72
2022/05/27 00:56:27;;;;;;;;;;;14.90;99.90;;;;;;5084959;28;19923;-72
2022/05/27 00:58:57;;;;;;;;;;;14.90;99.90;;;;;;5088107;28;19924;-71
2022/05/27 01:01:23;;;;;;;;;;;14.90;99.90;;;;;;5080014;28;19916;-71
2022/05/27 01:03:49;;;;;;;;;;;15.00;99.90;;;;;;5065450;28;20362;-72
2022/05/27 01:06:14;;;;;;;;;;;15.00;99.90;;;;;;5083447;28;20872;-72
2022/05/27 01:08:40;;;;;;;;;;;14.90;99.90;;;;;;5081198;28;19935;-71
2022/05/27 01:11:06;;;;;;;;;;;14.90;99.90;;;;;;5083123;28;19919;-71
2022/05/27 01:13:32;;;;;;;;;;;14.90;99.90;;;;;;5076262;28;19912;-71
2022/05/27 01:16:03;;;;;;;;;;;14.80;99.90;;;;;;5086657;28;19930;-71
2022/05/27 01:22:01;;;;;;;;;;;14.60;99.90;;;;;;5023087;28;20302;-70
2022/05/27 01:24:37;;;;;;;;;;;14.70;99.90;;;;;;5080274;28;19912;-71
2022/05/27 01:27:12;;;;;;;;;;;14.50;99.90;;;;;;5081861;28;19916;-70
2022/05/27 01:29:53;;;;;;;;;;;14.50;99.90;;;;;;5068833;28;19923;-71
2022/05/27 01:32:34;;;;;;;;;;;14.50;99.90;;;;;;5085513;28;20423;-72
2022/05/27 01:35:11;;;;;;;;;;;14.60;99.90;;;;;;5089028;28;19916;-70
2022/05/27 01:37:37;;;;;;;;;;;14.70;99.90;;;;;;5086637;28;20355;-72
2022/05/27 01:40:10;;;;;;;;;;;14.70;99.90;;;;;;5082208;28;20015;-72
2022/05/27 01:42:46;;;;;;;;;;;14.60;99.90;;;;;;5086810;28;19965;-71
2022/05/27 01:45:31;;;;;;;;;;;14.60;99.90;;;;;;5084220;28;20448;-71
2022/05/27 01:51:00;;;;;;;;;;;14.60;99.90;;;;;;5081360;28;19919;-72
2022/05/27 01:53:28;;;;;;;;;;;14.70;99.90;;;;;;5080910;28;20006;-73
2022/05/27 01:56:01;;;;;;;;;;;14.70;99.90;;;;;;5081231;28;19912;-71
2022/05/27 01:58:33;;;;;;;;;;;14.70;99.90;;;;;;5069417;28;19916;-71
2022/05/27 02:00:58;;;;;;;;;;;14.70;99.90;;;;;;5082148;28;19916;-72
2022/05/27 02:03:28;;;;;;;;;;;14.80;99.90;;;;;;5090237;28;19961;-72
2022/05/27 02:06:06;;;;;;;;;;;14.70;99.90;;;;;;5091081;28;19994;-72
2022/05/27 02:08:34;;;;;;;;;;;14.80;99.90;;;;;;5093756;28;19921;-72
2022/05/27 02:11:02;;;;;;;;;;;14.70;99.90;;;;;;5089928;28;19924;-71
2022/05/27 02:13:27;;;;;;;;;;;14.60;99.90;;;;;;5089847;28;19919;-71
2022/05/27 02:15:53;;;;;;;;;;;14.60;99.90;;;;;;5085432;28;19912;-71
2022/05/27 02:18:19;;;;;;;;;;;14.70;99.90;;;;;;5090831;28;20335;-71
2022/05/27 02:20:47;;;;;;;;;;;14.70;99.90;;;;;;5089451;28;19919;-71
2022/05/27 02:23:21;;;;;;;;;;;14.70;99.90;;;;;;5087003;28;19916;-71
2022/05/27 02:25:47;;;;;;;;;;;14.80;99.90;;;;;;5093246;28;19912;-70
2022/05/27 02:28:16;;;;;;;;;;;14.80;99.90;;;;;;5093766;28;19965;-71
2022/05/27 02:30:43;;;;;;;;;;;14.70;99.90;;;;;;5090494;28;19926;-70
2022/05/27 02:35:57;;;;;;;;;;;14.70;99.90;;;;;;5088409;28;19919;-72
2022/05/27 02:38:23;;;;;;;;;;;14.80;99.90;;;;;;5094554;28;20362;-73
2022/05/27 02:41:21;;;;;;;;;;;14.80;99.90;;;;;;5090944;28;19991;-70
2022/05/27 02:43:49;;;;;;;;;;;14.90;99.90;;;;;;5035490;28;19913;-71
2022/05/27 02:46:23;;;;;;;;;;;14.90;99.90;;;;;;5071358;28;20238;-71
2022/05/27 02:49:00;;;;;;;;;;;15.00;99.90;;;;;;5086020;28;19913;-72
2022/05/27 02:51:40;;;;;;;;;;;14.90;99.90;;;;;;5053704;28;19934;-72
2022/05/27 02:54:13;;;;;;;;;;;15.00;99.90;;;;;;5069150;28;19912;-71
2022/05/27 02:56:59;;;;;;;;;;;15.00;99.90;;;;;;5069329;28;19919;-72
2022/05/27 02:59:25;;;;;;;;;;;15.00;99.90;;;;;;5034762;28;19931;-72
2022/05/27 03:01:50;;;;;;;;;;;14.90;99.90;;;;;;5087545;28;19965;-71
2022/05/27 03:04:17;;;;;;;;;;;15.00;99.90;;;;;;5089048;28;19920;-71
2022/05/27 03:06:45;;;;;;;;;;;15.00;99.90;;;;;;5087875;28;19919;-72
2022/05/27 03:09:27;;;;;;;;;;;15.00;99.90;;;;;;5085482;28;19912;-70
2022/05/27 03:12:05;;;;;;;;;;;15.00;99.90;;;;;;5087268;28;19927;-71
2022/05/27 03:14:31;;;;;;;;;;;15.00;99.90;;;;;;5081673;28;19919;-71
2022/05/27 03:17:06;;;;;;;;;;;14.90;99.90;;;;;;5085354;28;20399;-71
2022/05/27 03:19:31;;;;;;;;;;;14.90;99.90;;;;;;5087234;28;19920;-71
2022/05/27 03:21:57;;;;;;;;;;;14.80;99.90;;;;;;5068678;28;20273;-71
2022/05/27 03:24:42;;;;;;;;;;;14.90;99.90;;;;;;5089509;28;19920;-71
2022/05/27 03:27:23;;;;;;;;;;;14.90;99.90;;;;;;5071105;28;19920;-70
2022/05/27 03:29:49;;;;;;;;;;;14.90;99.90;;;;;;5089636;28;19912;-72
2022/05/27 03:32:24;;;;;;;;;;;14.90;99.90;;;;;;5087781;28;19912;-71
2022/05/27 03:34:57;;;;;;;;;;;14.90;99.90;;;;;;5088461;28;19912;-71
2022/05/27 03:37:45;;;;;;;;;;;14.80;99.90;;;;;;5068807;28;19920;-71
2022/05/27 03:40:16;;;;;;;;;;;14.80;99.90;;;;;;5086012;28;20315;-72
2022/05/27 03:42:41;;;;;;;;;;;14.80;99.90;;;;;;5088493;28;19916;-71
2022/05/27 03:45:09;;;;;;;;;;;14.80;99.90;;;;;;5085507;28;19970;-71
2022/05/27 03:47:35;;;;;;;;;;;14.80;99.90;;;;;;5083052;28;19919;-70
2022/05/27 03:50:01;;;;;;;;;;;14.80;99.90;;;;;;5082738;28;19913;-72
2022/05/27 03:52:30;;;;;;;;;;;14.90;99.90;;;;;;5086537;28;20341;-72
2022/05/27 03:54:55;;;;;;;;;;;14.80;99.90;;;;;;5087245;28;19913;-71
2022/05/27 03:57:21;;;;;;;;;;;14.90;99.90;;;;;;5088664;28;20262;-71
2022/05/27 03:59:46;;;;;;;;;;;14.90;99.90;;;;;;5085212;28;19912;-71
2022/05/27 04:02:12;;;;;;;;;;;14.90;99.90;;;;;;5087751;28;19934;-70
2022/05/27 04:04:37;;;;;;;;;;;15.00;99.90;;;;;;5086891;28;19923;-72
2022/05/27 04:07:03;;;;;;;;;;;15.00;99.90;;;;;;5085273;28;19912;-71
2022/05/27 04:09:29;;;;;;;;;;;15.00;99.90;;;;;;5085571;28;20286;-71
2022/05/27 04:11:54;;;;;;;;;;;15.00;99.90;;;;;;5086758;28;20385;-70
2022/05/27 04:14:20;;;;;;;;;;;15.00;99.90;;;;;;5086468;28;20063;-71
2022/05/27 04:16:48;;;;;;;;;;;15.00;99.90;;;;;;5078922;28;20005;-72
2022/05/27 04:19:14;;;;;;;;;;;14.90;99.90;;;;;;5089520;28;20056;-71
2022/05/27 04:21:40;;;;;;;;;;;14.90;99.90;;;;;;5087942;28;19912;-72
2022/05/27 04:24:06;;;;;;;;;;;14.90;99.90;;;;;;5087960;28;19919;-71
2022/05/27 04:26:31;;;;;;;;;;;14.90;99.90;;;;;;5080251;28;20023;-71
2022/05/27 04:28:57;;;;;;;;;;;15.00;99.90;;;;;;5067734;28;19997;-71
2022/05/27 04:31:22;;;;;;;;;;;15.00;99.90;;;;;;5085800;28;20168;-71
2022/05/27 04:33:48;;;;;;;;;;;15.00;99.90;;;;;;5067094;28;19912;-71
2022/05/27 04:36:15;;;;;;;;;;;15.00;99.90;;;;;;5084213;28;20452;-71
2022/05/27 04:38:40;;;;;;;;;;;15.00;99.90;;;;;;5086959;28;19924;-72
2022/05/27 04:41:06;;;;;;;;;;;15.00;99.90;;;;;;5078617;28;20043;-71
2022/05/27 04:43:33;;;;;;;;;;;15.10;99.90;;;;;;5086434;28;19912;-72
2022/05/27 04:45:59;;;;;;;;;;;15.10;99.90;;;;;;5085795;28;19919;-71
2022/05/27 04:48:25;;;;;;;;;;;15.10;99.90;;;;;;5066012;28;19916;-72
2022/05/27 04:50:51;;;;;;;;;;;15.10;99.90;;;;;;5086794;28;19920;-72
2022/05/27 04:53:16;;;;;;;;;;;15.10;99.90;;;;;;5065601;28;19913;-71
2022/05/27 04:55:42;;;;;;;;;;;15.10;99.90;;;;;;5069131;28;19920;-71
2022/05/27 04:58:11;;;;;;;;;;;15.10;99.90;;;;;;5087057;28;19927;-71
2022/05/27 05:00:41;;;;;;;;;;;15.10;99.90;;;;;;5066271;28;19919;-72
2022/05/27 05:03:07;;;;;;;;;;;15.00;99.90;;;;;;5087091;28;20261;-72
2022/05/27 05:05:34;;;;;;;;;;;14.90;99.90;;;;;;5087227;28;19916;-71
2022/05/27 05:08:02;;;;;;;;;;;14.80;99.90;;;;;;5063945;28;20327;-72
2022/05/27 05:10:28;;;;;;;;;;;14.70;99.90;;;;;;5086812;28;20002;-72
2022/05/27 05:12:53;;;;;;;;;;;14.50;99.90;;;;;;5083762;28;20194;-71
2022/05/27 05:15:20;;;;;;;;;;;14.30;99.90;;;;;;5088385;28;19938;-71
2022/05/27 05:17:46;;;;;;;;;;;14.20;99.90;;;;;;5084905;28;19920;-71
2022/05/27 05:20:13;;;;;;;;;;;14.20;99.90;;;;;;5072649;28;19916;-72
2022/05/27 05:22:39;;;;;;;;;;;14.10;99.90;;;;;;5091406;28;19919;-72
2022/05/27 05:25:05;;;;;;;;;;;14.00;99.90;;;;;;5085088;28;20016;-72
2022/05/27 05:27:31;;;;;;;;;;;14.00;99.90;;;;;;5086382;28;19913;-71
2022/05/27 05:29:57;;;;;;;;;;;14.00;99.90;;;;;;5086240;28;19919;-71
2022/05/27 05:32:23;;;;;;;;;;;13.80;99.90;;;;;;5091135;28;20286;-70
2022/05/27 05:34:51;;;;;;;;;;;13.70;99.90;;;;;;5085427;28;19912;-71
2022/05/27 05:37:16;;;;;;;;;;;13.70;99.90;;;;;;5086461;28;19928;-71
2022/05/27 05:39:42;;;;;;;;;;;13.60;99.90;;;;;;5090554;28;19916;-70
2022/05/27 05:42:08;;;;;;;;;;;13.60;99.90;;;;;;5090220;28;19912;-72
2022/05/27 05:44:34;;;;;;;;;;;13.70;99.90;;;;;;5089279;28;19918;-72
2022/05/27 05:47:00;;;;;;;;;;;13.70;99.90;;;;;;5089486;28;19911;-70
2022/05/27 05:49:26;;;;;;;;;;;13.70;99.90;;;;;;5090889;28;19995;-71
2022/05/27 05:51:52;;;;;;;;;;;13.80;99.90;;;;;;5085503;28;20361;-72
2022/05/27 05:54:21;;;;;;;;;;;13.70;99.90;;;;;;5089600;28;19912;-71
2022/05/27 05:56:47;;;;;;;;;;;13.60;99.90;;;;;;5085148;28;19912;-71
2022/05/27 05:59:14;;;;;;;;;;;13.50;99.90;;;;;;5090118;28;19939;-71
2022/05/27 06:01:40;;;;;;;;;;;13.40;99.90;;;;;;5090238;28;19920;-72
2022/05/27 06:04:06;;;;;;;;;;;13.40;99.90;;;;;;5088318;28;20613;-71
2022/05/27 06:06:31;;;;;;;;;;;13.40;99.90;;;;;;5085864;28;19912;-70
2022/05/27 06:08:57;;;;;;;;;;;13.40;99.90;;;;;;5088791;28;20286;-72
2022/05/27 06:11:22;;;;;;;;;;;13.50;99.90;;;;;;5089131;28;19954;-71
2022/05/27 06:13:48;;;;;;;;;;;13.50;99.90;;;;;;5089543;28;20250;-71
2022/05/27 06:16:13;;;;;;;;;;;13.50;99.90;;;;;;5068463;28;20419;-71
2022/05/27 06:18:39;;;;;;;;;;;13.60;99.90;;;;;;5070491;28;20025;-71
2022/05/27 06:21:05;;;;;;;;;;;13.70;99.90;;;;;;5083242;28;19982;-70
2022/05/27 06:23:31;;;;;;;;;;;13.90;99.90;;;;;;5085855;28;20367;-71
2022/05/27 06:26:01;;;;;;;;;;;14.10;99.90;;;;;;5082904;28;20761;-71
2022/05/27 06:36:40;;;;;;;;;;;14.40;99.90;;;;;;5088022;28;19919;-73
2022/05/27 06:39:07;;;;;;;;;;;14.10;99.90;;;;;;5089832;28;19920;-74
2022/05/27 06:41:33;;;;;;;;;;;13.90;99.90;;;;;;5067222;28;19916;-74
2022/05/27 06:43:59;;;;;;;;;;;13.60;99.90;;;;;;5090837;28;19919;-73
2022/05/27 06:46:24;;;;;;;;;;;13.50;99.90;;;;;;5088871;28;19916;-74
2022/05/27 06:48:50;;;;;;;;;;;13.40;99.90;;;;;;5084772;28;20013;-73
2022/05/27 06:51:18;;;;;;;;;;;13.50;99.90;;;;;;5083432;28;19943;-73
2022/05/27 06:53:43;;;;;;;;;;;13.50;99.90;;;;;;5085877;28;19912;-74
2022/05/27 06:56:09;;;;;;;;;;;13.50;99.90;;;;;;5089134;28;19922;-74
2022/05/27 06:58:34;;;;;;;;;;;13.60;99.90;;;;;;5082994;28;20009;-74
2022/05/27 07:01:00;;;;;;;;;;;13.70;99.90;;;;;;5082331;28;20017;-73
2022/05/27 07:03:25;;;;;;;;;;;13.70;99.90;;;;;;5086191;28;19912;-74
2022/05/27 07:05:51;;;;;;;;;;;13.70;99.90;;;;;;5089011;28;19963;-71
2022/05/27 07:08:17;;;;;;;;;;;13.70;99.90;;;;;;5086592;28;20356;-73
2022/05/27 07:10:42;;;;;;;;;;;13.70;99.90;;;;;;5091085;28;19912;-73
2022/05/27 07:13:08;;;;;;;;;;;13.70;99.90;;;;;;5085753;28;19976;-72
2022/05/27 07:15:33;;;;;;;;;;;13.70;99.90;;;;;;5088602;28;19935;-74
2022/05/27 07:18:02;;;;;;;;;;;13.70;99.90;;;;;;5086371;28;19974;-73
2022/05/27 07:20:27;;;;;;;;;;;13.60;99.90;;;;;;5070713;28;19912;-71
2022/05/27 07:22:53;;;;;;;;;;;13.70;99.90;;;;;;5086139;28;19916;-71
2022/05/27 07:25:19;;;;;;;;;;;13.80;99.90;;;;;;5071731;28;19912;-73
2022/05/27 07:27:44;;;;;;;;;;;13.70;99.90;;;;;;5073409;28;19912;-73
2022/05/27 07:30:11;;;;;;;;;;;13.60;99.90;;;;;;5089698;28;19919;-72
2022/05/27 07:32:37;;;;;;;;;;;13.90;99.90;;;;;;5064824;28;19912;-73
2022/05/27 07:35:05;;;;;;;;;;;14.00;99.90;;;;;;5089196;28;20245;-71
2022/05/27 07:37:31;;;;;;;;;;;14.00;99.90;;;;;;5087097;28;19920;-72
2022/05/27 07:39:57;;;;;;;;;;;14.00;99.90;;;;;;5087982;28;20396;-73
2022/05/27 07:42:22;;;;;;;;;;;14.20;99.90;;;;;;5087791;28;20282;-72
2022/05/27 07:44:50;;;;;;;;;;;14.30;99.90;;;;;;5086722;28;19996;-72
2022/05/27 07:47:16;;;;;;;;;;;14.40;99.90;;;;;;5089366;28;19920;-73
2022/05/27 07:49:42;;;;;;;;;;;14.40;99.90;;;;;;5069229;28;19957;-72
2022/05/27 07:52:07;;;;;;;;;;;14.40;99.90;;;;;;5088858;28;20344;-73
2022/05/27 07:54:33;;;;;;;;;;;14.20;99.90;;;;;;5067113;28;19935;-72
2022/05/27 07:56:59;;;;;;;;;;;14.30;99.90;;;;;;5088736;28;19919;-71
2022/05/27 07:59:25;;;;;;;;;;;14.30;99.90;;;;;;5087472;28;19920;-72
2022/05/27 08:01:50;;;;;;;;;;;14.40;99.90;;;;;;5084703;28;20183;-74
2022/05/27 08:04:16;;;;;;;;;;;14.40;99.90;;;;;;5083674;28;19916;-72
2022/05/27 08:06:42;;;;;;;;;;;14.50;99.90;;;;;;5080023;28;19908;-72
2022/05/27 08:09:08;;;;;;;;;;;14.60;99.90;;;;;;5086233;28;19912;-72
2022/05/27 08:11:34;;;;;;;;;;;14.70;99.90;;;;;;5085972;28;20003;-72
2022/05/27 08:14:01;;;;;;;;;;;14.80;99.90;;;;;;5086828;28;20026;-72
2022/05/27 08:16:27;;;;;;;;;;;14.90;99.90;;;;;;5085098;28;20098;-72
2022/05/27 08:18:53;;;;;;;;;;;15.00;99.90;;;;;;5088678;28;20007;-72
2022/05/27 08:21:18;;;;;;;;;;;15.00;99.90;;;;;;5088258;28;19928;-73
2022/05/27 08:23:44;;;;;;;;;;;14.60;99.90;;;;;;5087190;28;20417;-73
2022/05/27 08:26:10;;;;;;;;;;;14.60;99.90;;;;;;5086173;28;20003;-71
2022/05/27 08:28:35;;;;;;;;;;;14.60;99.90;;;;;;5066796;28;19920;-72
2022/05/27 08:31:01;;;;;;;;;;;14.50;99.90;;;;;;5089033;28;19956;-71
2022/05/27 08:38:00;;;;;;;;;;;14.30;99.90;;;;;;5084881;28;20066;-71
2022/05/27 08:38:59;;;;;;;;;;;14.60;99.90;;;;;;5085641;28;19926;-72
2022/05/27 08:41:33;;;;;;;;;;;14.70;99.90;;;;;;5068948;28;20233;-73
2022/05/27 08:43:59;;;;;;;;;;;14.80;98.60;;;;;;5088170;28;20035;-72
2022/05/27 08:46:45;;;;;;;;;;;15.00;99.10;;;;;;5086889;28;20449;-71
2022/05/27 08:49:19;;;;;;;;;;;15.00;98.10;;;;;;5086424;28;19978;-71
2022/05/27 08:51:52;;;;;;;;;;;14.90;98.20;;;;;;5084517;28;20365;-73
2022/05/27 08:54:26;;;;;;;;;;;14.80;98.30;;;;;;5083746;28;20026;-70
2022/05/27 08:59:53;;;;;;;;;;;15.10;97.60;;;;;;5077097;28;19947;-72
2022/05/27 09:02:45;;;;;;;;;;;15.30;97.60;;;;;;5081837;28;19912;-73
2022/05/27 09:05:22;;;;;;;;;;;15.40;96.90;;;;;;5080525;28;20376;-71
2022/05/27 09:07:48;;;;;;;;;;;15.50;96.60;;;;;;5084208;28;20104;-71
2022/05/27 09:10:30;;;;;;;;;;;15.60;96.10;;;;;;5088511;28;19930;-74
2022/05/27 09:13:14;;;;;;;;;;;15.60;96.00;;;;;;5085469;28;20436;-71
2022/05/27 09:16:08;;;;;;;;;;;15.40;95.50;;;;;;5085065;28;19952;-71
2022/05/27 09:18:46;;;;;;;;;;;15.30;96.00;;;;;;5001739;28;20347;-72
2022/05/27 09:21:17;;;;;;;;;;;15.30;95.50;;;;;;5090773;28;19937;-72
2022/05/27 09:23:43;;;;;;;;;;;15.40;94.60;;;;;;5073656;28;19980;-73
2022/05/27 09:26:08;;;;;;;;;;;15.30;93.90;;;;;;5085288;28;19913;-71
2022/05/27 09:28:37;;;;;;;;;;;15.30;94.40;;;;;;5090691;28;20012;-73
2022/05/27 09:31:04;;;;;;;;;;;15.30;94.90;;;;;;5092148;28;19920;-71
2022/05/27 09:33:31;;;;;;;;;;;15.10;94.90;;;;;;5085813;28;19955;-70
2022/05/27 09:36:02;;;;;;;;;;;15.20;95.00;;;;;;5066770;28;19913;-71
2022/05/27 09:38:30;;;;;;;;;;;15.40;95.00;;;;;;5083596;28;19916;-72
2022/05/27 09:40:58;;;;;;;;;;;15.40;95.30;;;;;;5089585;28;20020;-73
2022/05/27 09:43:29;;;;;;;;;;;15.60;95.50;;;;;;5091550;28;19912;-71
2022/05/27 09:45:56;;;;;;;;;;;15.70;94.90;;;;;;5090785;28;19991;-72
2022/05/27 09:48:22;;;;;;;;;;;15.70;95.00;;;;;;5094128;28;19919;-73
2022/05/27 09:50:48;;;;;;;;;;;15.70;95.00;;;;;;5095368;28;20377;-73
2022/05/27 09:53:16;;;;;;;;;;;15.70;95.00;;;;;;5092658;28;19924;-72
2022/05/27 09:56:02;;;;;;;;;;;15.80;94.10;;;;;;5085745;28;19922;-72
2022/05/27 09:58:29;;;;;;;;;;;15.60;94.40;;;;;;5075581;28;19954;-72
2022/05/27 10:00:55;;;;;;;;;;;15.60;95.40;;;;;;5088332;28;20015;-72
2022/05/27 10:03:27;;;;;;;;;;;15.70;95.00;;;;;;5081324;28;19966;-73
2022/05/27 10:05:54;;;;;;;;;;;15.60;94.30;;;;;;5088620;28;20304;-71
2022/05/27 10:08:28;;;;;;;;;;;15.80;95.00;;;;;;5076532;28;19916;-72
2022/05/27 10:11:26;;;;;;;;;;;15.80;95.80;;;;;;5095374;28;19912;-73
2022/05/27 10:14:07;;;;;;;;;;;15.90;95.30;;;;;;5025801;28;19969;-72
2022/05/27 10:16:33;;;;;;;;;;;15.70;96.10;;;;;;5093301;28;19916;-73
2022/05/27 10:19:05;;;;;;;;;;;15.80;96.00;;;;;;5086901;28;20411;-71
2022/05/27 10:21:31;;;;;;;;;;;16.00;95.20;;;;;;5095155;28;20373;-70
2022/05/27 10:24:11;;;;;;;;;;;16.00;93.90;;;;;;5110732;28;19915;-72
2022/05/27 10:26:37;;;;;;;;;;;16.00;94.10;;;;;;5095277;28;19937;-72
2022/05/27 10:29:15;;;;;;;;;;;15.90;94.90;;;;;;5082985;28;19939;-74
2022/05/27 10:31:49;;;;;;;;;;;15.80;94.60;;;;;;5080218;28;19934;-71
2022/05/27 10:34:34;;;;;;;;;;;15.80;94.00;;;;;;5093900;28;20386;-71
2022/05/27 10:37:05;;;;;;;;;;;15.90;94.60;;;;;;5093646;28;20392;-71
2022/05/27 10:39:38;;;;;;;;;;;15.90;94.30;;;;;;5088726;28;20029;-71
2022/05/27 10:42:17;;;;;;;;;;;16.10;94.60;;;;;;5086919;28;20035;-72
2022/05/27 10:44:55;;;;;;;;;;;16.10;94.00;;;;;;5097717;28;19955;-71
2022/05/27 10:47:26;;;;;;;;;;;16.10;93.90;;;;;;5097308;28;20056;-72
2022/05/27 10:49:51;;;;;;;;;;;16.10;93.10;;;;;;5091031;28;20012;-73
2022/05/27 10:52:35;;;;;;;;;;;16.00;93.50;;;;;;5096960;28;19960;-71
2022/05/27 10:55:27;;;;;;;;;;;16.00;93.80;;;;;;5092144;28;20003;-72
2022/05/27 11:03:49;;;;;;;;;;;16.20;92.40;;;;;;5088463;28;19919;-71
2022/05/27 11:06:15;;;;;;;;;;;16.20;93.00;;;;;;5096527;28;20908;-72
2022/05/27 11:09:00;;;;;;;;;;;16.30;92.10;;;;;;5095455;28;20202;-71
2022/05/27 11:11:49;;;;;;;;;;;16.30;91.40;;;;;;5058854;28;19919;-72
2022/05/27 11:17:09;;;;;;;;;;;16.50;92.00;;;;;;5083114;28;19920;-71
2022/05/27 11:19:57;;;;;;;;;;;16.40;92.10;;;;;;5027329;28;1871913;-71
2022/05/27 11:22:38;;;;;;;;;;;16.30;92.20;;;;;;5090727;28;19957;-72
2022/05/27 11:25:11;;;;;;;;;;;16.30;92.50;;;;;;5088099;28;19914;-73
2022/05/27 11:27:56;;;;;;;;;;;16.40;92.40;;;;;;5094447;28;19967;-73
2022/05/27 11:30:24;;;;;;;;;;;16.50;91.70;;;;;;5097837;28;20015;-71
2022/05/27 11:32:50;;;;;;;;;;;16.50;91.70;;;;;;5098293;28;19912;-71
2022/05/27 11:35:21;;;;;;;;;;;16.50;91.30;;;;;;5100443;28;20170;-72
2022/05/27 11:37:47;;;;;;;;;;;16.60;91.10;;;;;;5077073;28;19964;-72
2022/05/27 11:40:20;;;;;;;;;;;16.50;91.80;;;;;;5089692;28;19916;-72
2022/05/27 11:42:59;;;;;;;;;;;16.50;91.20;;;;;;5098646;28;19912;-72
2022/05/27 11:45:25;;;;;;;;;;;16.40;91.20;;;;;;5088060;28;19916;-72
2022/05/27 11:47:51;;;;;;;;;;;16.50;91.60;;;;;;5093375;28;19943;-71
2022/05/27 11:50:35;;;;;;;;;;;16.50;91.50;;;;;;5092057;28;19912;-72
2022/05/27 11:53:02;;;;;;;;;;;16.50;92.20;;;;;;5088355;28;20033;-69
2022/05/27 11:55:34;;;;;;;;;;;16.70;92.50;;;;;;5083941;28;19931;-69
2022/05/27 11:58:05;;;;;;;;;;;16.90;92.00;;;;;;5081738;28;20005;-70
2022/05/27 12:00:35;;;;;;;;;;;17.10;92.10;;;;;;5080990;28;19919;-69
2022/05/27 12:03:10;;;;;;;;;;;17.20;91.30;;;;;;5090938;28;19916;-68
2022/05/27 12:05:35;;;;;;;;;;;17.20;91.10;;;;;;5098105;28;19916;-68
2022/05/27 12:08:06;;;;;;;;;;;17.10;91.20;;;;;;5090861;28;19934;-69
2022/05/27 12:10:38;;;;;;;;;;;17.00;90.60;;;;;;5091296;28;19923;-69
2022/05/27 12:13:09;;;;;;;;;;;17.10;91.10;;;;;;5086795;28;19912;-69
2022/05/27 12:15:37;;;;;;;;;;;17.20;91.20;;;;;;5092208;28;19925;-67
2022/05/27 12:18:07;;;;;;;;;;;17.30;90.50;;;;;;5093714;28;19969;-69
2022/05/27 12:20:33;;;;;;;;;;;17.30;90.40;;;;;;5092651;28;19913;-68
2022/05/27 12:23:02;;;;;;;;;;;17.20;91.00;;;;;;5090511;28;19927;-68
2022/05/27 12:25:29;;;;;;;;;;;17.10;91.30;;;;;;5095610;28;19916;-68
2022/05/27 12:27:56;;;;;;;;;;;17.30;91.50;;;;;;5074806;28;19928;-67
2022/05/27 12:30:39;;;;;;;;;;;17.30;90.80;;;;;;5088876;28;20373;-68
2022/05/27 12:33:05;;;;;;;;;;;17.20;91.50;;;;;;5097012;28;19912;-70
2022/05/27 12:35:37;;;;;;;;;;;17.30;91.60;;;;;;5106296;28;19912;-69
2022/05/27 12:38:16;;;;;;;;;;;17.30;91.10;;;;;;5102154;28;19932;-70
2022/05/27 12:40:44;;;;;;;;;;;17.40;91.90;;;;;;5089287;28;20026;-70
2022/05/27 12:43:10;;;;;;;;;;;17.60;91.20;;;;;;5088823;28;19918;-67
2022/05/27 12:45:38;;;;;;;;;;;17.80;90.80;;;;;;5091908;28;19927;-68
2022/05/27 12:48:04;;;;;;;;;;;17.80;90.40;;;;;;5086972;28;19918;-68
2022/05/27 12:50:32;;;;;;;;;;;17.70;90.30;;;;;;5079132;28;19918;-68
2022/05/27 12:53:12;;;;;;;;;;;17.80;89.80;;;;;;5077848;28;20022;-69
2022/05/27 13:00:55;;;;;;;;;;;17.80;90.40;;;;;;5103805;28;19933;-70
2022/05/27 13:01:20;;;;;;;;;;;17.90;90.10;;;;;;5099415;28;19922;-69
2022/05/27 13:03:48;;;;;;;;;;;17.80;90.40;;;;;;5097456;28;19919;-70
2022/05/27 13:06:49;;;;;;;;;;;17.80;90.20;;;;;;5092913;28;19978;-68
2022/05/27 13:09:34;;;;;;;;;;;17.90;90.50;;;;;;5082553;28;19916;-70
2022/05/27 13:12:00;;;;;;;;;;;17.80;90.20;;;;;;5071390;28;19924;-69
2022/05/27 13:14:46;;;;;;;;;;;17.90;90.30;;;;;;5089824;28;19920;-70
2022/05/27 13:17:30;;;;;;;;;;;18.00;90.30;;;;;;5091890;28;20258;-70
2022/05/27 13:20:06;;;;;;;;;;;18.00;90.00;;;;;;5090279;28;20405;-70
2022/05/27 13:22:36;;;;;;;;;;;18.00;89.10;;;;;;5073335;28;19912;-70
2022/05/27 13:25:21;;;;;;;;;;;18.10;88.90;;;;;;5089192;28;20349;-69
2022/05/27 13:27:50;;;;;;;;;;;18.00;88.20;;;;;;5069979;28;19912;-68
2022/05/27 13:30:16;;;;;;;;;;;18.00;87.80;;;;;;5088469;28;19922;-70
2022/05/27 13:33:01;;;;;;;;;;;18.00;88.40;;;;;;5090647;28;19920;-68
2022/05/27 13:35:33;;;;;;;;;;;18.10;87.50;;;;;;5089801;28;19920;-69
2022/05/27 13:37:59;;;;;;;;;;;18.20;88.90;;;;;;5105951;28;20662;-69
2022/05/27 13:40:30;;;;;;;;;;;18.30;88.20;;;;;;5082700;28;19930;-72
2022/05/27 13:42:57;;;;;;;;;;;18.40;88.50;;;;;;5099970;28;19916;-69
2022/05/27 13:45:33;;;;;;;;;;;18.40;87.20;;;;;;5097266;28;19920;-70
2022/05/27 13:48:12;;;;;;;;;;;18.70;86.40;;;;;;5096257;28;20022;-72
2022/05/27 13:50:39;;;;;;;;;;;18.70;86.00;;;;;;5077763;28;19928;-67
2022/05/27 13:53:14;;;;;;;;;;;18.60;87.60;;;;;;5071354;28;19924;-66
2022/05/27 13:55:40;;;;;;;;;;;18.80;87.70;;;;;;5084080;28;20193;-68
2022/05/27 13:58:06;;;;;;;;;;;18.70;88.20;;;;;;5082640;28;19916;-68
2022/05/27 14:00:38;;;;;;;;;;;18.80;88.20;;;;;;5077936;28;19987;-69
2022/05/27 14:03:05;;;;;;;;;;;18.80;87.70;;;;;;5077764;28;19912;-69
2022/05/27 14:05:31;;;;;;;;;;;18.90;87.70;;;;;;5088510;28;19916;-69
2022/05/27 14:07:58;;;;;;;;;;;19.00;88.40;;;;;;5093026;28;19913;-69
2022/05/27 14:10:26;;;;;;;;;;;18.90;88.40;;;;;;5090063;28;19912;-68
2022/05/27 14:12:53;;;;;;;;;;;18.80;87.10;;;;;;5088667;28;20373;-70
2022/05/27 14:15:24;;;;;;;;;;;18.90;88.80;;;;;;5082479;28;20449;-68
2022/05/27 14:17:50;;;;;;;;;;;18.80;89.10;;;;;;5088140;28;20015;-68
2022/05/27 14:20:22;;;;;;;;;;;18.80;89.50;;;;;;5090595;28;19913;-67
2022/05/27 14:22:48;;;;;;;;;;;19.00;89.50;;;;;;5067286;28;19920;-67
2022/05/27 14:25:25;;;;;;;;;;;19.00;90.40;;;;;;5094962;28;20275;-69
2022/05/27 14:27:55;;;;;;;;;;;19.10;90.20;;;;;;5096006;28;19947;-68
2022/05/27 14:30:23;;;;;;;;;;;19.20;89.90;;;;;;5090357;28;19919;-69
2022/05/27 14:32:49;;;;;;;;;;;19.10;90.00;;;;;;5089335;28;19913;-67
2022/05/27 14:35:18;;;;;;;;;;;19.20;90.10;;;;;;5102068;28;19919;-68
2022/05/27 14:37:51;;;;;;;;;;;19.30;90.30;;;;;;5091980;28;19916;-69
2022/05/27 14:40:23;;;;;;;;;;;19.90;90.10;;;;;;5105440;28;19919;-68
2022/05/27 14:42:49;;;;;;;;;;;21.10;87.30;;;;;;5092682;28;19948;-69
2022/05/27 14:45:28;;;;;;;;;;;21.60;84.40;;;;;;5108935;28;19919;-69
2022/05/27 14:47:57;;;;;;;;;;;22.50;83.00;;;;;;5108044;28;19927;-70
2022/05/27 14:50:31;;;;;;;;;;;22.80;81.20;;;;;;5104818;28;19912;-70
2022/05/27 14:53:01;;;;;;;;;;;23.40;79.90;;;;;;5094651;28;20138;-69
2022/05/27 14:55:32;;;;;;;;;;;24.10;77.50;;;;;;5104368;28;19908;-68
2022/05/27 14:57:59;;;;;;;;;;;24.00;76.20;;;;;;5093317;28;20362;-69
2022/05/27 15:00:30;;;;;;;;;;;23.90;77.30;;;;;;5112260;28;19920;-69
2022/05/27 15:02:57;;;;;;;;;;;24.00;76.60;;;;;;5088584;28;19913;-69
2022/05/27 15:05:23;;;;;;;;;;;24.90;75.50;;;;;;5086342;28;19908;-69